Terminal Aerodrome Forecast
Issued by NWS

Home | Current Version | Previous Version | Text Only | Print | Product List | Glossary On
Versions: 1 2 3 4 5 6 7 8 9 10 11 12 13 14 15 16 17 18 19 20 21 22
000
FTUS43 KBIS 231731
TAFJMS
TAF
KJMS 231731Z 2318/2418 27005KT P6SM OVC015
     FM232300 11004KT P6SM OVC015
     FM240700 06006KT 4SM -SN BR OVC010
     FM241100 05007KT 4SM -SN BR OVC008
     FM241500 02010KT P6SM -SN OVC015=

USA.gov is the U.S. government's official web portal to all federal, state and local government web resources and services.